createdAt,value
2017-07-02T00:01:01.902Z,99.90
2017-07-02T00:03:31.246Z,99.90
2017-07-02T00:06:00.002Z,99.90
2017-07-02T00:08:28.361Z,99.90
2017-07-02T00:10:57.325Z,99.90
2017-07-02T00:13:25.600Z,99.90
2017-07-02T00:15:54.639Z,99.90
2017-07-02T00:18:23.434Z,99.90
2017-07-02T00:20:52.071Z,99.90
2017-07-02T00:23:20.384Z,99.90
2017-07-02T00:25:49.006Z,99.90
2017-07-02T00:28:17.792Z,99.90
2017-07-02T00:30:46.098Z,99.90
2017-07-02T00:33:16.077Z,99.90
2017-07-02T00:35:44.808Z,99.90
2017-07-02T00:38:14.633Z,99.90
2017-07-02T00:40:44.727Z,99.90
2017-07-02T00:43:13.106Z,99.90
2017-07-02T00:45:42.228Z,99.90
2017-07-02T00:48:11.958Z,99.90
2017-07-02T00:50:41.035Z,99.90
2017-07-02T00:53:09.366Z,99.90
2017-07-02T00:55:37.978Z,99.90
2017-07-02T00:58:06.419Z,99.90
2017-07-02T01:00:35.502Z,99.90
2017-07-02T01:03:05.820Z,99.90
2017-07-02T01:05:34.169Z,99.90
2017-07-02T01:08:02.450Z,99.90
2017-07-02T01:10:31.107Z,99.90
2017-07-02T01:13:00.250Z,99.90
2017-07-02T01:15:28.542Z,99.90
2017-07-02T01:17:57.793Z,99.90
2017-07-02T01:20:27.076Z,99.90
2017-07-02T01:22:56.130Z,99.90
2017-07-02T01:25:24.723Z,99.90
2017-07-02T01:27:53.624Z,99.90
2017-07-02T01:30:21.999Z,99.90
2017-07-02T01:32:50.737Z,99.90
2017-07-02T01:35:19.817Z,99.90
2017-07-02T01:37:49.434Z,99.90
2017-07-02T01:40:18.837Z,99.90
2017-07-02T01:42:47.985Z,99.90
2017-07-02T01:45:16.777Z,99.90
2017-07-02T01:47:45.421Z,99.90
2017-07-02T01:50:13.727Z,99.90
2017-07-02T01:52:42.917Z,99.90
2017-07-02T01:55:13.780Z,99.90
2017-07-02T01:57:42.135Z,99.90
2017-07-02T02:00:10.389Z,99.90
2017-07-02T02:02:51.072Z,99.90
2017-07-02T02:05:19.384Z,99.90
2017-07-02T02:07:47.693Z,99.90
2017-07-02T02:10:16.323Z,99.90
2017-07-02T02:12:45.906Z,99.90
2017-07-02T02:15:14.199Z,99.90
2017-07-02T02:17:42.802Z,99.90
2017-07-02T02:20:11.482Z,99.90
2017-07-02T02:22:40.533Z,99.90
2017-07-02T02:25:09.219Z,99.90
2017-07-02T02:27:37.745Z,99.90
2017-07-02T02:30:06.135Z,99.90
2017-07-02T02:32:34.722Z,99.90
2017-07-02T02:35:03.015Z,99.90
2017-07-02T02:37:32.042Z,99.90
2017-07-02T02:40:01.409Z,99.90
2017-07-02T02:42:29.704Z,99.90
2017-07-02T02:44:58.628Z,99.90
2017-07-02T02:47:27.587Z,99.90
2017-07-02T02:49:55.994Z,99.90
2017-07-02T02:52:24.343Z,99.90
2017-07-02T02:54:52.925Z,99.90
2017-07-02T02:57:21.241Z,99.90
2017-07-02T02:59:49.534Z,99.90
2017-07-02T03:02:19.658Z,99.90
2017-07-02T03:04:47.934Z,99.90
2017-07-02T03:07:17.025Z,99.90
2017-07-02T03:09:45.728Z,99.90
2017-07-02T03:12:14.635Z,99.90
2017-07-02T03:14:44.362Z,99.90
2017-07-02T03:17:12.991Z,99.90
2017-07-02T03:19:41.287Z,99.90
2017-07-02T03:22:10.719Z,99.90
2017-07-02T03:24:39.385Z,99.90
2017-07-02T03:27:07.779Z,99.90
2017-07-02T03:29:36.055Z,99.90
2017-07-02T03:32:04.661Z,99.90
2017-07-02T03:34:33.818Z,99.90
2017-07-02T03:37:02.121Z,99.90
2017-07-02T03:39:30.698Z,99.90
2017-07-02T03:41:59.499Z,99.90
2017-07-02T03:44:27.895Z,99.90
2017-07-02T03:46:58.897Z,98.90
2017-07-02T03:49:27.843Z,99.20
2017-07-02T03:51:56.208Z,99.50
2017-07-02T03:54:24.810Z,99.30
2017-07-02T03:56:54.404Z,99.30
2017-07-02T03:59:23.170Z,99.20
2017-07-02T04:01:51.932Z,99.00
2017-07-02T04:04:21.081Z,99.10
2017-07-02T04:06:49.427Z,98.80
2017-07-02T04:09:18.107Z,98.90
2017-07-02T04:11:47.140Z,99.00
2017-07-02T04:14:16.440Z,98.90
2017-07-02T04:16:46.412Z,98.90
2017-07-02T04:19:15.789Z,98.80
2017-07-02T04:21:44.208Z,98.80
2017-07-02T04:24:13.613Z,98.80
2017-07-02T04:26:43.299Z,98.00
2017-07-02T04:29:11.917Z,98.00
2017-07-02T04:31:41.319Z,98.00
2017-07-02T04:34:10.159Z,98.00
2017-07-02T04:36:39.268Z,97.80
2017-07-02T04:39:07.890Z,96.90
2017-07-02T04:41:36.476Z,96.30
2017-07-02T04:44:06.219Z,95.80
2017-07-02T04:46:35.565Z,95.30
2017-07-02T04:49:03.914Z,95.20
2017-07-02T04:51:32.245Z,95.60
2017-07-02T04:54:01.157Z,95.00
2017-07-02T04:56:29.716Z,94.50
2017-07-02T04:58:57.994Z,94.80
2017-07-02T05:01:26.610Z,94.80
2017-07-02T05:03:55.527Z,94.50
2017-07-02T05:06:23.911Z,94.90
2017-07-02T05:08:53.041Z,95.10
2017-07-02T05:11:21.343Z,94.40
2017-07-02T05:13:49.636Z,94.60
2017-07-02T05:16:18.249Z,94.30
2017-07-02T05:18:47.230Z,94.10
2017-07-02T05:21:16.118Z,93.90
2017-07-02T05:23:46.708Z,93.60
2017-07-02T05:26:15.135Z,93.60
2017-07-02T05:28:44.259Z,93.80
2017-07-02T05:31:12.830Z,93.60
2017-07-02T05:33:41.381Z,93.90
2017-07-02T05:36:09.650Z,93.10
2017-07-02T05:38:39.321Z,93.10
2017-07-02T05:41:07.602Z,93.40
2017-07-02T05:43:35.874Z,93.20
2017-07-02T05:46:04.475Z,93.50
2017-07-02T05:48:33.177Z,93.80
2017-07-02T05:51:01.557Z,93.50
2017-07-02T05:53:30.527Z,93.90
2017-07-02T05:55:58.840Z,94.00
2017-07-02T05:58:27.209Z,94.00
2017-07-02T06:00:55.882Z,94.40
2017-07-02T06:03:24.489Z,94.50
2017-07-02T06:05:52.881Z,94.60
2017-07-02T06:08:21.594Z,94.70
2017-07-02T06:10:50.262Z,94.60
2017-07-02T06:13:19.356Z,94.60
2017-07-02T06:15:48.094Z,94.80
2017-07-02T06:18:17.186Z,94.80
2017-07-02T06:20:46.253Z,94.40
2017-07-02T06:23:14.823Z,94.40
2017-07-02T06:25:43.163Z,94.10
2017-07-02T06:28:12.723Z,93.30
2017-07-02T06:30:41.314Z,93.60
2017-07-02T06:33:09.588Z,93.60
2017-07-02T06:35:38.117Z,93.60
2017-07-02T06:38:07.543Z,92.20
2017-07-02T06:40:36.609Z,91.90
2017-07-02T06:43:06.798Z,91.90
2017-07-02T06:45:35.608Z,91.80
2017-07-02T06:48:03.890Z,91.50
2017-07-02T06:50:32.290Z,91.50
2017-07-02T06:53:01.117Z,92.00
2017-07-02T06:55:31.097Z,91.50
2017-07-02T06:57:59.565Z,91.90
2017-07-02T07:00:28.530Z,91.60
2017-07-02T07:02:56.997Z,91.20
2017-07-02T07:05:26.934Z,90.40
2017-07-02T07:07:56.389Z,90.70
2017-07-02T07:10:25.588Z,89.30
2017-07-02T07:12:53.894Z,89.10
2017-07-02T07:15:23.696Z,88.30
2017-07-02T07:17:51.978Z,88.40
2017-07-02T07:20:21.089Z,88.50
2017-07-02T07:22:50.053Z,88.70
2017-07-02T07:25:19.839Z,88.70
2017-07-02T07:27:48.869Z,90.10
2017-07-02T07:30:17.606Z,89.40
2017-07-02T07:32:46.674Z,87.50
2017-07-02T07:35:15.593Z,87.30
2017-07-02T07:37:45.900Z,86.50
2017-07-02T07:40:14.671Z,85.70
2017-07-02T07:42:42.953Z,87.10
2017-07-02T07:45:11.873Z,88.40
2017-07-02T07:47:40.971Z,86.60
2017-07-02T07:50:11.251Z,85.60
2017-07-02T07:52:41.430Z,86.20
2017-07-02T07:55:09.726Z,87.80
2017-07-02T07:57:38.792Z,86.90
2017-07-02T08:00:07.406Z,86.90
2017-07-02T08:02:36.081Z,86.20
2017-07-02T08:05:04.368Z,87.40
2017-07-02T08:07:33.074Z,86.50
2017-07-02T08:10:02.143Z,82.40
2017-07-02T08:12:30.657Z,81.80
2017-07-02T08:14:59.339Z,81.80
2017-07-02T08:17:27.621Z,82.40
2017-07-02T08:19:56.801Z,82.20
2017-07-02T08:22:25.374Z,82.10
2017-07-02T08:24:54.083Z,81.80
2017-07-02T08:27:23.262Z,80.40
2017-07-02T08:29:51.893Z,81.70
2017-07-02T08:32:21.294Z,82.60
2017-07-02T08:34:49.668Z,81.90
2017-07-02T08:37:18.310Z,81.60
2017-07-02T08:39:46.638Z,80.30
2017-07-02T08:42:15.079Z,78.70
2017-07-02T08:44:43.733Z,79.50
2017-07-02T08:47:12.824Z,78.10
2017-07-02T08:49:41.471Z,78.10
2017-07-02T08:52:10.239Z,77.20
2017-07-02T08:54:39.708Z,77.70
2017-07-02T08:57:08.002Z,79.30
2017-07-02T08:59:36.657Z,76.60
2017-07-02T09:02:04.942Z,76.10
2017-07-02T09:04:33.244Z,75.00
2017-07-02T09:07:01.839Z,77.00
2017-07-02T09:09:30.626Z,74.70
2017-07-02T09:11:58.886Z,74.00
2017-07-02T09:14:27.737Z,73.30
2017-07-02T09:16:57.956Z,72.70
2017-07-02T09:19:27.438Z,74.70
2017-07-02T09:21:57.896Z,73.30
2017-07-02T09:24:27.367Z,72.50
2017-07-02T09:26:56.276Z,73.20
2017-07-02T09:29:24.839Z,73.90
2017-07-02T09:31:54.166Z,75.30
2017-07-02T09:34:22.492Z,74.90
2017-07-02T09:36:51.257Z,74.90
2017-07-02T09:39:20.018Z,74.90
2017-07-02T09:41:48.468Z,74.50
2017-07-02T09:44:17.094Z,73.50
2017-07-02T09:46:45.482Z,74.60
2017-07-02T09:49:13.772Z,73.60
2017-07-02T09:51:42.475Z,72.60
2017-07-02T09:54:10.757Z,72.10
2017-07-02T09:56:39.811Z,71.40
2017-07-02T09:59:08.432Z,71.40
2017-07-02T10:01:36.705Z,70.40
2017-07-02T10:04:05.071Z,68.10
2017-07-02T10:06:33.646Z,67.60
2017-07-02T10:09:01.945Z,64.00
2017-07-02T10:11:30.225Z,63.90
2017-07-02T10:13:58.943Z,65.50
2017-07-02T10:16:27.249Z,65.30
2017-07-02T10:18:56.454Z,65.80
2017-07-02T10:21:25.816Z,66.70
2017-07-02T10:23:54.091Z,65.60
2017-07-02T10:26:22.400Z,65.60
2017-07-02T10:28:51.073Z,64.20
2017-07-02T10:31:19.444Z,63.80
2017-07-02T10:33:47.846Z,61.60
2017-07-02T10:36:16.871Z,61.30
2017-07-02T10:38:45.936Z,62.00
2017-07-02T10:41:14.293Z,61.80
2017-07-02T10:43:42.928Z,59.60
2017-07-02T10:46:11.329Z,58.70
2017-07-02T10:48:40.389Z,55.70
2017-07-02T10:51:08.977Z,55.60
2017-07-02T10:53:38.025Z,56.00
2017-07-02T10:56:07.116Z,56.00
2017-07-02T10:58:35.787Z,57.00
2017-07-02T11:01:05.805Z,60.80
2017-07-02T11:03:35.103Z,61.50
2017-07-02T11:06:03.685Z,63.90
2017-07-02T11:08:31.988Z,66.20
2017-07-02T11:11:01.105Z,68.70
2017-07-02T11:13:30.676Z,68.70
2017-07-02T11:15:59.433Z,69.10
2017-07-02T11:18:28.223Z,92.40
2017-07-02T11:20:56.957Z,91.30
2017-07-02T11:23:25.535Z,70.40
2017-07-02T11:25:54.443Z,70.00
2017-07-02T11:28:23.128Z,69.90
2017-07-02T11:30:52.000Z,69.50
2017-07-02T11:33:20.273Z,69.10
2017-07-02T11:35:49.997Z,86.60
2017-07-02T11:38:19.537Z,91.10
2017-07-02T11:40:48.684Z,73.00
2017-07-02T11:43:17.308Z,73.90
2017-07-02T11:45:45.607Z,72.40
2017-07-02T11:48:13.983Z,72.70
2017-07-02T11:50:42.533Z,73.60
2017-07-02T11:53:11.563Z,73.30
2017-07-02T11:55:40.344Z,73.00
2017-07-02T11:58:09.556Z,73.50
2017-07-02T12:00:37.834Z,73.20
2017-07-02T12:03:06.124Z,71.90
2017-07-02T12:05:34.733Z,73.80
2017-07-02T12:08:03.844Z,72.40
2017-07-02T12:10:32.188Z,72.80
2017-07-02T12:13:01.630Z,72.40
2017-07-02T12:15:30.199Z,72.50
2017-07-02T12:17:58.766Z,73.90
2017-07-02T12:20:27.359Z,75.70
2017-07-02T12:22:55.662Z,79.10
2017-07-02T12:25:24.069Z,79.70
2017-07-02T12:27:53.409Z,81.10
2017-07-02T12:30:21.708Z,80.80
2017-07-02T12:32:50.358Z,80.90
2017-07-02T12:35:19.724Z,81.20
2017-07-02T12:37:48.122Z,81.20
2017-07-02T12:40:16.468Z,79.60
2017-07-02T12:42:45.077Z,82.40
2017-07-02T12:45:13.404Z,82.40
2017-07-02T12:47:42.451Z,82.40
2017-07-02T12:50:11.023Z,82.40
2017-07-02T12:52:39.341Z,81.70
2017-07-02T12:55:08.438Z,81.90
2017-07-02T12:57:37.004Z,81.40
2017-07-02T13:00:06.600Z,87.20
2017-07-02T13:02:34.911Z,88.00
2017-07-02T13:05:03.486Z,91.30
2017-07-02T13:07:32.520Z,91.90
2017-07-02T13:10:01.566Z,93.70
2017-07-02T13:12:30.576Z,93.70
2017-07-02T13:14:58.959Z,95.40
2017-07-02T13:17:27.676Z,94.90
2017-07-02T13:19:56.350Z,94.80
2017-07-02T13:22:24.760Z,95.70
2017-07-02T13:24:55.094Z,95.70
2017-07-02T13:27:24.775Z,95.40
2017-07-02T13:29:53.989Z,95.40
2017-07-02T13:32:22.374Z,94.90
2017-07-02T13:34:50.955Z,94.40
2017-07-02T13:37:20.276Z,94.80
2017-07-02T13:39:49.377Z,95.10
2017-07-02T13:42:18.792Z,95.10
2017-07-02T13:44:48.575Z,94.50
2017-07-02T13:47:17.492Z,94.50
2017-07-02T13:49:46.159Z,94.10
2017-07-02T13:52:15.225Z,94.90
2017-07-02T13:54:44.190Z,94.60
2017-07-02T13:57:13.555Z,94.60
2017-07-02T13:59:41.959Z,94.60
2017-07-02T14:02:10.318Z,93.20
2017-07-02T14:04:39.322Z,93.30
2017-07-02T14:07:08.338Z,92.90
2017-07-02T14:09:36.724Z,92.20
2017-07-02T14:12:05.293Z,91.10
2017-07-02T14:14:33.578Z,90.20
2017-07-02T14:17:01.877Z,89.40
2017-07-02T14:19:30.579Z,89.40
2017-07-02T14:21:58.921Z,89.30
2017-07-02T14:24:27.340Z,87.10
2017-07-02T14:26:56.017Z,86.70
2017-07-02T14:29:24.823Z,84.70
2017-07-02T14:31:53.970Z,86.80
2017-07-02T14:34:23.315Z,86.30
2017-07-02T14:36:52.232Z,86.90
2017-07-02T14:39:22.313Z,90.30
2017-07-02T14:41:50.922Z,89.70
2017-07-02T14:44:19.209Z,88.40
2017-07-02T14:46:47.703Z,89.30
2017-07-02T14:49:17.045Z,88.10
2017-07-02T14:51:45.394Z,88.60
2017-07-02T14:54:14.631Z,89.70
2017-07-02T14:56:43.293Z,91.30
2017-07-02T14:59:11.648Z,92.10
2017-07-02T15:01:39.944Z,93.90
2017-07-02T15:04:08.670Z,94.70
2017-07-02T15:06:37.732Z,97.80
2017-07-02T15:09:06.502Z,97.70
2017-07-02T15:11:35.126Z,98.10
2017-07-02T15:14:03.674Z,98.30
2017-07-02T15:16:31.964Z,98.30
2017-07-02T15:19:00.586Z,98.10
2017-07-02T15:21:28.891Z,98.10
2017-07-02T15:23:58.101Z,98.60
2017-07-02T15:26:26.817Z,98.90
2017-07-02T15:28:55.115Z,98.70
2017-07-02T15:31:23.430Z,99.00
2017-07-02T15:33:52.116Z,99.10
2017-07-02T15:36:20.453Z,98.30
2017-07-02T15:38:48.769Z,98.50
2017-07-02T15:41:17.356Z,98.10
2017-07-02T15:43:45.720Z,97.80
2017-07-02T15:46:14.016Z,97.10
2017-07-02T15:48:42.618Z,96.70
2017-07-02T15:51:11.103Z,96.20
2017-07-02T15:53:39.860Z,94.20
2017-07-02T15:56:08.436Z,94.40
2017-07-02T15:58:36.728Z,94.50
2017-07-02T16:01:05.027Z,93.90
2017-07-02T16:03:33.593Z,94.10
2017-07-02T16:06:01.874Z,94.40
2017-07-02T16:08:31.072Z,94.70
2017-07-02T16:10:59.687Z,95.30
2017-07-02T16:13:29.101Z,95.00
2017-07-02T16:15:57.391Z,95.30
2017-07-02T16:18:26.066Z,95.70
2017-07-02T16:20:54.477Z,96.60
2017-07-02T16:23:24.721Z,96.60
2017-07-02T16:25:54.101Z,97.30
2017-07-02T16:28:22.385Z,97.30
2017-07-02T16:30:51.186Z,97.20
2017-07-02T16:33:20.586Z,94.10
2017-07-02T16:35:48.861Z,94.20
2017-07-02T16:38:17.138Z,93.10
2017-07-02T16:40:46.352Z,93.40
2017-07-02T16:43:14.699Z,93.30
2017-07-02T16:45:43.000Z,93.40
2017-07-02T16:48:11.792Z,94.20
2017-07-02T16:50:40.104Z,93.00
2017-07-02T16:53:09.641Z,92.10
2017-07-02T16:55:38.292Z,91.40
2017-07-02T16:58:07.364Z,90.50
2017-07-02T17:00:35.658Z,90.90
2017-07-02T17:03:04.960Z,90.50
2017-07-02T17:05:33.345Z,90.80
2017-07-02T17:08:01.612Z,90.90
2017-07-02T17:10:30.834Z,91.60
2017-07-02T17:12:59.214Z,91.70
2017-07-02T17:15:27.500Z,92.00
2017-07-02T17:17:56.064Z,92.00
2017-07-02T17:20:24.359Z,92.10
2017-07-02T17:22:52.679Z,92.30
2017-07-02T17:25:21.342Z,91.90
2017-07-02T17:27:49.718Z,91.30
2017-07-02T17:30:19.145Z,91.90
2017-07-02T17:32:47.866Z,91.30
2017-07-02T17:35:16.189Z,90.80
2017-07-02T17:37:44.467Z,90.90
2017-07-02T17:40:13.698Z,90.90
2017-07-02T17:42:42.508Z,89.80
2017-07-02T17:45:10.800Z,89.80
2017-07-02T17:47:40.173Z,88.40
2017-07-02T17:50:08.557Z,88.50
2017-07-02T17:52:36.856Z,90.10
2017-07-02T17:55:05.557Z,88.00
2017-07-02T17:57:34.605Z,90.10
2017-07-02T18:00:02.916Z,90.10
2017-07-02T18:02:32.015Z,90.00
2017-07-02T18:05:00.836Z,89.00
2017-07-02T18:07:30.014Z,90.40
2017-07-02T18:09:59.373Z,90.30
2017-07-02T18:12:28.050Z,89.90
2017-07-02T18:14:56.813Z,89.50
2017-07-02T18:17:26.190Z,90.00
2017-07-02T18:19:54.997Z,89.80
2017-07-02T18:22:23.293Z,90.50
2017-07-02T18:24:51.875Z,90.50
2017-07-02T18:27:20.597Z,90.60
2017-07-02T18:29:48.939Z,90.80
2017-07-02T18:32:17.503Z,90.90
2017-07-02T18:34:45.794Z,90.90
2017-07-02T18:37:14.182Z,90.80
2017-07-02T18:39:42.787Z,91.00
2017-07-02T18:42:11.407Z,91.20
2017-07-02T18:44:40.035Z,91.30
2017-07-02T18:47:08.865Z,91.50
2017-07-02T18:49:37.638Z,91.30
2017-07-02T18:52:06.325Z,91.50
2017-07-02T18:54:36.603Z,91.40
2017-07-02T18:57:06.379Z,91.50
2017-07-02T18:59:34.698Z,91.40
2017-07-02T19:02:04.079Z,91.80
2017-07-02T19:04:32.350Z,91.80
2017-07-02T19:07:01.169Z,91.70
2017-07-02T19:09:30.585Z,91.90
2017-07-02T19:11:59.654Z,92.10
2017-07-02T19:14:28.441Z,92.10
2017-07-02T19:16:57.558Z,92.10
2017-07-02T19:19:27.286Z,92.20
2017-07-02T19:21:56.457Z,92.20
2017-07-02T19:24:25.045Z,92.20
2017-07-02T19:26:53.613Z,92.30
2017-07-02T19:29:22.003Z,92.30
2017-07-02T19:31:50.624Z,92.60
2017-07-02T19:34:19.698Z,92.60
2017-07-02T19:36:47.971Z,92.60
2017-07-02T19:39:16.560Z,92.30
2017-07-02T19:41:45.279Z,92.40
2017-07-02T19:44:13.579Z,92.40
2017-07-02T19:46:42.939Z,92.40
2017-07-02T19:49:11.315Z,92.40
2017-07-02T19:51:39.615Z,92.40
2017-07-02T19:54:08.231Z,91.90
2017-07-02T19:56:37.291Z,92.00
2017-07-02T19:59:06.189Z,91.90
2017-07-02T20:01:35.280Z,92.10
2017-07-02T20:04:04.152Z,92.10
2017-07-02T20:06:32.848Z,92.10
2017-07-02T20:09:02.711Z,92.30
2017-07-02T20:11:32.735Z,92.60
2017-07-02T20:14:02.124Z,93.30
2017-07-02T20:16:30.829Z,93.00
2017-07-02T20:18:59.117Z,93.10
2017-07-02T20:21:29.095Z,93.50
2017-07-02T20:23:58.055Z,93.50
2017-07-02T20:26:27.114Z,93.50
2017-07-02T20:28:55.392Z,93.50
2017-07-02T20:31:23.986Z,93.60
2017-07-02T20:33:52.728Z,93.20
2017-07-02T20:36:21.063Z,93.20
2017-07-02T20:38:49.666Z,93.20
2017-07-02T20:41:18.047Z,92.90
2017-07-02T20:43:46.383Z,93.00
2017-07-02T20:46:15.012Z,93.10
2017-07-02T20:48:43.295Z,92.80
2017-07-02T20:51:11.668Z,92.80
2017-07-02T20:53:40.872Z,92.90
2017-07-02T20:56:09.511Z,92.60
2017-07-02T20:58:37.808Z,92.80
2017-07-02T21:01:06.941Z,92.60
2017-07-02T21:03:35.238Z,92.60
2017-07-02T21:06:04.080Z,92.60
2017-07-02T21:08:32.699Z,92.50
2017-07-02T21:11:01.507Z,92.50
2017-07-02T21:13:29.883Z,91.90
2017-07-02T21:15:58.960Z,91.80
2017-07-02T21:18:27.318Z,91.20
2017-07-02T21:20:56.307Z,91.00
2017-07-02T21:23:24.945Z,90.40
2017-07-02T21:25:53.260Z,90.40
2017-07-02T21:28:22.332Z,90.60
2017-07-02T21:30:51.502Z,90.50
2017-07-02T21:33:20.811Z,90.30
2017-07-02T21:35:49.923Z,90.60
2017-07-02T21:38:18.616Z,90.70
2017-07-02T21:40:47.227Z,90.70
2017-07-02T21:43:15.587Z,90.90
2017-07-02T21:45:44.198Z,91.00
2017-07-02T21:48:12.687Z,91.10
2017-07-02T21:50:41.068Z,90.70
2017-07-02T21:53:10.067Z,90.40
2017-07-02T21:55:38.351Z,90.00
2017-07-02T21:58:06.738Z,90.10
2017-07-02T22:00:35.477Z,89.70
2017-07-02T22:03:04.824Z,89.50
2017-07-02T22:05:33.598Z,89.30
2017-07-02T22:08:02.213Z,88.60
2017-07-02T22:10:31.288Z,89.10
2017-07-02T22:12:59.573Z,88.80
2017-07-02T22:15:28.181Z,88.10
2017-07-02T22:17:56.511Z,88.20
2017-07-02T22:20:25.371Z,88.60
2017-07-02T22:22:54.385Z,89.40
2017-07-02T22:25:23.447Z,88.90
2017-07-02T22:27:51.713Z,89.60
2017-07-02T22:30:20.514Z,89.20
2017-07-02T22:32:48.930Z,89.20
2017-07-02T22:35:18.251Z,89.30
2017-07-02T22:37:47.875Z,89.00
2017-07-02T22:40:17.029Z,89.70
2017-07-02T22:42:45.401Z,89.70
2017-07-02T22:45:14.080Z,90.10
2017-07-02T22:47:42.371Z,90.30
2017-07-02T22:50:10.670Z,90.40
2017-07-02T22:52:39.223Z,90.40
2017-07-02T22:55:07.509Z,90.60
2017-07-02T22:57:35.804Z,90.50
2017-07-02T23:00:04.371Z,90.40
2017-07-02T23:02:33.379Z,90.50
2017-07-02T23:05:01.797Z,90.70
2017-07-02T23:07:31.188Z,90.20
2017-07-02T23:09:59.584Z,90.30
2017-07-02T23:12:28.011Z,90.40
2017-07-02T23:14:56.926Z,90.20
2017-07-02T23:17:25.310Z,90.30
2017-07-02T23:19:54.517Z,90.00
2017-07-02T23:22:23.256Z,90.10
2017-07-02T23:24:52.490Z,90.30
2017-07-02T23:27:21.275Z,90.10
2017-07-02T23:29:50.718Z,89.80
2017-07-02T23:32:20.260Z,88.70
2017-07-02T23:34:48.545Z,88.50
2017-07-02T23:37:17.938Z,89.20
2017-07-02T23:39:46.306Z,88.80
2017-07-02T23:42:14.879Z,89.10
2017-07-02T23:44:43.497Z,89.00
2017-07-02T23:47:11.780Z,89.40
2017-07-02T23:49:40.805Z,99.90
2017-07-02T23:52:09.437Z,99.90
2017-07-02T23:59:37.764Z,99.90
